createdAt,value
2019-01-21T00:02:09.001Z,56.13
2019-01-21T00:06:12.454Z,57.63
2019-01-21T00:10:15.900Z,55.63
2019-01-21T00:14:19.328Z,52.57
2019-01-21T00:18:22.788Z,49.17
2019-01-21T00:22:26.233Z,47.90
2019-01-21T00:26:29.668Z,51.13
2019-01-21T00:30:33.112Z,51.87
2019-01-21T00:34:36.540Z,49.40
2019-01-21T00:38:39.960Z,48.67
2019-01-21T00:42:43.395Z,44.93
2019-01-21T00:46:46.832Z,48.73
2019-01-21T00:50:50.300Z,45.70
2019-01-21T00:54:53.715Z,49.00
2019-01-21T00:58:57.148Z,43.23
2019-01-21T01:03:00.725Z,42.77
2019-01-21T01:07:04.231Z,41.27
2019-01-21T01:11:07.655Z,31.63
2019-01-21T01:15:13.733Z,27.50
2019-01-21T01:19:17.177Z,25.50
2019-01-21T01:23:20.630Z,26.33
2019-01-21T01:27:24.056Z,25.70
2019-01-21T01:31:27.484Z,24.67
2019-01-21T01:35:30.918Z,27.20
2019-01-21T01:39:34.356Z,28.07
2019-01-21T01:43:37.792Z,26.33
2019-01-21T01:47:44.773Z,26.50
2019-01-21T01:51:46.386Z,26.00
2019-01-21T01:55:49.884Z,27.07
2019-01-21T01:59:53.316Z,27.30
2019-01-21T02:03:56.755Z,27.33
2019-01-21T02:08:00.188Z,30.53
2019-01-21T02:12:04.259Z,32.77
2019-01-21T02:16:07.689Z,28.37
2019-01-21T02:20:14.260Z,29.70
2019-01-21T02:24:17.764Z,27.70
2019-01-21T02:28:24.468Z,27.33
2019-01-21T02:32:34.619Z,27.13
2019-01-21T02:36:53.394Z,29.40
2019-01-21T02:41:02.389Z,28.47
2019-01-21T02:45:32.552Z,26.13
2019-01-21T02:49:53.695Z,25.60
2019-01-21T02:54:00.777Z,27.13
2019-01-21T02:58:31.290Z,28.33
2019-01-21T03:02:49.537Z,30.10
2019-01-21T03:06:58.509Z,30.03
2019-01-21T03:11:07.544Z,27.27
2019-01-21T03:15:22.728Z,32.23
2019-01-21T03:19:45.619Z,28.47
2019-01-21T03:24:04.084Z,28.93
2019-01-21T03:28:21.824Z,30.47
2019-01-21T03:32:47.921Z,28.40
2019-01-21T03:37:13.863Z,30.57
2019-01-21T03:41:20.383Z,30.67
2019-01-21T03:45:49.615Z,30.23
2019-01-21T03:50:01.623Z,32.60
2019-01-21T03:54:08.421Z,29.73
2019-01-21T03:58:23.748Z,29.60
2019-01-21T04:02:42.176Z,33.13
2019-01-21T04:06:54.777Z,29.83
2019-01-21T04:11:03.873Z,33.47
2019-01-21T04:15:25.311Z,34.27
2019-01-21T04:19:48.678Z,28.70
2019-01-21T04:23:57.914Z,32.07
2019-01-21T04:28:04.827Z,29.07
2019-01-21T04:32:27.708Z,29.53
2019-01-21T04:37:08.958Z,33.00
2019-01-21T04:41:33.009Z,28.57
2019-01-21T04:45:50.949Z,31.67
2019-01-21T04:50:03.493Z,29.33
2019-01-21T04:54:33.470Z,30.67
2019-01-21T04:59:13.989Z,31.40
2019-01-21T05:03:46.075Z,30.33
2019-01-21T05:08:01.539Z,31.13
2019-01-21T05:12:25.897Z,36.57
2019-01-21T05:16:49.860Z,43.57
2019-01-21T05:21:13.069Z,33.13
2019-01-21T05:25:22.278Z,39.63
2019-01-21T05:29:40.302Z,36.20
2019-01-21T05:34:07.496Z,32.97
2019-01-21T05:38:16.632Z,33.13
2019-01-21T05:42:45.619Z,32.33
2019-01-21T05:47:09.929Z,32.73
2019-01-21T05:51:21.988Z,39.17
2019-01-21T05:55:52.457Z,31.97
2019-01-21T06:00:13.913Z,38.13
2019-01-21T06:04:23.052Z,33.57
2019-01-21T06:08:55.101Z,32.27
2019-01-21T06:13:13.065Z,40.37
2019-01-21T06:17:25.329Z,35.00
2019-01-21T06:21:34.865Z,35.77
2019-01-21T06:25:56.181Z,39.37
2019-01-21T06:30:05.115Z,34.73
2019-01-21T06:34:29.829Z,32.97
2019-01-21T06:38:52.897Z,32.40
2019-01-21T06:43:26.684Z,33.70
2019-01-21T06:48:06.448Z,34.33
2019-01-21T06:52:35.621Z,37.13
2019-01-21T06:57:10.776Z,36.50
2019-01-21T07:01:36.846Z,37.40
2019-01-21T07:06:02.996Z,37.90
2019-01-21T07:10:12.160Z,36.80
2019-01-21T07:14:18.682Z,36.73
2019-01-21T07:18:58.498Z,38.33
2019-01-21T07:23:05.016Z,32.80
2019-01-21T07:27:19.773Z,43.33
2019-01-21T07:31:34.915Z,39.93
2019-01-21T07:35:57.866Z,38.67
2019-01-21T07:40:22.149Z,41.17
2019-01-21T07:44:37.598Z,39.17
2019-01-21T07:48:55.837Z,39.57
2019-01-21T07:53:23.551Z,36.77
2019-01-21T07:57:52.842Z,39.33
2019-01-21T08:02:08.829Z,44.30
2019-01-21T08:06:31.985Z,39.53
2019-01-21T08:10:57.854Z,41.23
2019-01-21T08:15:16.060Z,45.20
2019-01-21T08:19:38.772Z,39.47
2019-01-21T08:23:51.404Z,44.70
2019-01-21T08:28:03.414Z,43.10
2019-01-21T08:32:15.912Z,43.33
2019-01-21T08:36:37.677Z,36.93
2019-01-21T08:41:06.803Z,40.70
2019-01-21T08:45:37.009Z,39.60
2019-01-21T08:49:46.136Z,47.63
2019-01-21T08:54:10.688Z,38.13
2019-01-21T08:58:17.216Z,40.20
2019-01-21T09:02:26.375Z,39.67
2019-01-21T09:06:38.717Z,37.70
2019-01-21T09:11:06.002Z,35.17
2019-01-21T09:15:21.557Z,39.90
2019-01-21T09:19:46.012Z,40.83
2019-01-21T09:24:13.843Z,43.37
2019-01-21T09:28:41.153Z,37.53
2019-01-21T09:32:56.356Z,39.50
2019-01-21T09:37:17.632Z,42.63
2019-01-21T09:41:33.068Z,36.50
2019-01-21T09:45:57.729Z,39.20
2019-01-21T09:50:01.612Z,40.07
2019-01-21T09:54:07.398Z,38.30
2019-01-21T09:58:11.096Z,44.13
2019-01-21T10:02:15.873Z,36.20
2019-01-21T10:06:22.522Z,37.80
2019-01-21T10:10:34.312Z,36.90
2019-01-21T10:14:41.088Z,44.43
2019-01-21T10:18:50.376Z,39.87
2019-01-21T10:23:02.529Z,38.90
2019-01-21T10:27:15.116Z,41.47
2019-01-21T10:31:44.177Z,38.33
2019-01-21T10:36:17.169Z,37.03
2019-01-21T10:40:35.001Z,44.70
2019-01-21T10:44:50.268Z,38.70
2019-01-21T10:48:59.667Z,35.90
2019-01-21T10:53:17.991Z,40.77
2019-01-21T10:57:36.294Z,33.70
2019-01-21T11:01:57.896Z,38.10
2019-01-21T11:06:07.082Z,31.50
2019-01-21T11:10:34.717Z,35.43
2019-01-21T11:14:56.325Z,57.67
2019-01-21T11:19:21.964Z,34.03
2019-01-21T11:23:29.265Z,31.73
2019-01-21T11:27:35.768Z,37.07
2019-01-21T11:31:50.625Z,30.70
2019-01-21T11:36:13.604Z,42.57
2019-01-21T11:40:28.544Z,32.70
2019-01-21T11:44:50.093Z,38.87
2019-01-21T11:49:24.043Z,30.30
2019-01-21T11:53:44.925Z,31.47
2019-01-21T11:58:33.276Z,29.13
2019-01-21T12:02:39.784Z,32.93
2019-01-21T12:06:55.229Z,29.30
2019-01-21T12:11:10.560Z,30.53
2019-01-21T12:15:25.928Z,29.67
2019-01-21T12:19:38.244Z,36.97
2019-01-21T12:23:44.772Z,27.50
2019-01-21T12:27:54.207Z,25.93
2019-01-21T12:32:18.722Z,25.97
2019-01-21T12:36:25.225Z,60.00
2019-01-21T12:40:40.328Z,35.90
2019-01-21T12:45:07.225Z,63.60
2019-01-21T12:49:28.088Z,29.83
2019-01-21T12:53:49.460Z,27.80
2019-01-21T12:58:11.043Z,28.40
2019-01-21T13:02:26.657Z,27.37
2019-01-21T13:06:54.224Z,38.73
2019-01-21T13:11:06.741Z,125.77
2019-01-21T13:15:21.882Z,45.13
2019-01-21T13:19:46.468Z,31.67
2019-01-21T13:23:55.652Z,46.17
2019-01-21T13:28:11.085Z,32.97
2019-01-21T13:32:17.834Z,30.07
2019-01-21T13:36:30.066Z,55.80
2019-01-21T13:41:08.274Z,30.23
2019-01-21T13:45:17.461Z,32.20
2019-01-21T13:49:40.479Z,31.13
2019-01-21T13:54:06.331Z,28.33
2019-01-21T13:58:38.310Z,69.77
2019-01-21T14:02:44.860Z,94.53
2019-01-21T14:07:00.399Z,29.77
2019-01-21T14:11:12.367Z,26.30
2019-01-21T14:15:37.064Z,31.90
2019-01-21T14:19:49.414Z,29.43
2019-01-21T14:24:21.327Z,28.87
2019-01-21T14:28:33.430Z,28.10
2019-01-21T14:33:00.240Z,24.97
2019-01-21T14:37:32.516Z,26.47
2019-01-21T14:41:42.014Z,27.97
2019-01-21T14:46:10.311Z,28.77
2019-01-21T14:50:25.457Z,28.40
2019-01-21T14:54:52.732Z,28.20
2019-01-21T14:59:08.197Z,28.47
2019-01-21T15:03:44.592Z,35.63
2019-01-21T15:07:56.858Z,27.50
2019-01-21T15:12:21.538Z,33.70
2019-01-21T15:16:28.108Z,31.80
2019-01-21T15:20:43.369Z,36.23
2019-01-21T15:24:55.784Z,42.70
2019-01-21T15:29:23.507Z,43.13
2019-01-21T15:33:35.885Z,39.27
2019-01-21T15:37:54.476Z,36.53
2019-01-21T15:42:15.832Z,44.40
2019-01-21T15:46:34.096Z,47.50
2019-01-21T15:50:43.277Z,64.83
2019-01-21T15:55:07.876Z,48.10
2019-01-21T15:59:35.304Z,44.90
2019-01-21T16:04:02.277Z,46.00
2019-01-21T16:08:08.788Z,40.10
2019-01-21T16:12:15.326Z,46.27
2019-01-21T16:16:27.920Z,41.77
2019-01-21T16:20:34.454Z,44.93
2019-01-21T16:24:40.977Z,47.57
2019-01-21T16:28:47.508Z,39.87
2019-01-21T16:32:54.100Z,40.87
2019-01-21T16:37:07.684Z,42.63
2019-01-21T16:41:30.750Z,40.60
2019-01-21T16:45:34.200Z,52.83
2019-01-21T16:49:37.721Z,42.97
2019-01-21T16:53:41.225Z,42.30
2019-01-21T16:57:44.650Z,39.23
2019-01-21T17:01:48.092Z,44.47
2019-01-21T17:05:51.534Z,46.77
2019-01-21T17:09:54.965Z,46.17
2019-01-21T17:13:58.406Z,44.07
2019-01-21T17:18:01.900Z,48.00
2019-01-21T17:22:05.385Z,40.97
2019-01-21T17:26:08.882Z,50.97
2019-01-21T17:30:17.247Z,43.03
2019-01-21T17:34:20.732Z,49.13
2019-01-21T17:38:24.173Z,45.43
2019-01-21T17:42:27.658Z,46.43
2019-01-21T17:46:31.170Z,48.53
2019-01-21T17:50:34.676Z,42.93
2019-01-21T17:54:38.161Z,50.13
2019-01-21T17:58:41.648Z,50.83
2019-01-21T18:02:45.100Z,45.23
2019-01-21T18:06:50.207Z,49.70
2019-01-21T18:10:53.715Z,48.97
2019-01-21T18:14:57.169Z,56.67
2019-01-21T18:19:00.597Z,53.60
2019-01-21T18:23:04.580Z,55.67
2019-01-21T18:27:08.028Z,54.40
2019-01-21T18:31:11.490Z,60.53
2019-01-21T18:35:14.989Z,56.50
2019-01-21T18:39:18.436Z,51.20
2019-01-21T18:43:21.887Z,58.73
2019-01-21T18:47:25.329Z,52.60
2019-01-21T18:51:28.778Z,56.60
2019-01-21T18:55:32.221Z,53.60
2019-01-21T18:59:35.662Z,49.80
2019-01-21T19:03:39.112Z,52.20
2019-01-21T19:07:42.550Z,54.93
2019-01-21T19:11:45.992Z,50.17
2019-01-21T19:15:49.432Z,58.07
2019-01-21T19:19:52.884Z,61.80
2019-01-21T19:23:56.348Z,62.03
2019-01-21T19:27:59.789Z,57.40
2019-01-21T19:32:03.242Z,60.77
2019-01-21T19:36:06.673Z,56.90
2019-01-21T19:40:13.440Z,51.30
2019-01-21T19:44:16.889Z,56.97
2019-01-21T19:48:20.341Z,63.53
2019-01-21T19:52:23.790Z,87.33
2019-01-21T19:56:27.265Z,73.63
2019-01-21T20:00:31.186Z,62.13
2019-01-21T20:04:34.633Z,65.07
2019-01-21T20:08:38.085Z,55.30
2019-01-21T20:12:41.515Z,50.57
2019-01-21T20:16:45.537Z,54.17
2019-01-21T20:20:49.278Z,49.33
2019-01-21T20:24:53.193Z,57.87
2019-01-21T20:28:56.654Z,68.53
2019-01-21T20:33:00.079Z,73.93
2019-01-21T20:37:03.600Z,59.50
2019-01-21T20:41:07.223Z,56.33
2019-01-21T20:45:11.852Z,52.40
2019-01-21T20:49:15.316Z,55.70
2019-01-21T20:53:18.747Z,51.10
2019-01-21T20:57:22.271Z,56.27
2019-01-21T21:01:25.736Z,52.60
2019-01-21T21:05:30.124Z,56.40
2019-01-21T21:09:33.573Z,52.80
2019-01-21T21:13:37.000Z,58.93
2019-01-21T21:17:40.460Z,50.87
2019-01-21T21:21:43.914Z,57.83
2019-01-21T21:25:47.358Z,50.13
2019-01-21T21:29:50.820Z,52.97
2019-01-21T21:33:54.249Z,49.77
2019-01-21T21:37:57.766Z,58.40
2019-01-21T21:42:01.216Z,59.27
2019-01-21T21:46:04.927Z,57.90
2019-01-21T21:50:14.427Z,53.00
2019-01-21T21:54:17.867Z,54.97
2019-01-21T21:58:21.308Z,61.40
2019-01-21T22:02:24.783Z,57.60
2019-01-21T22:06:28.714Z,64.47
2019-01-21T22:10:32.180Z,56.10
2019-01-21T22:14:35.618Z,57.97
2019-01-21T22:18:39.144Z,61.23
2019-01-21T22:22:42.659Z,56.20
2019-01-21T22:26:46.952Z,57.07
2019-01-21T22:30:50.455Z,54.67
2019-01-21T22:34:53.904Z,55.30
2019-01-21T22:38:57.361Z,56.20
2019-01-21T22:43:00.803Z,53.07
2019-01-21T22:47:04.264Z,55.37
2019-01-21T22:51:07.723Z,57.13
2019-01-21T22:55:13.473Z,51.97
2019-01-21T22:59:16.993Z,53.57
2019-01-21T23:03:20.441Z,56.13
2019-01-21T23:07:23.902Z,55.27
2019-01-21T23:11:27.406Z,56.80
2019-01-21T23:15:30.916Z,57.03
2019-01-21T23:19:34.358Z,52.23
2019-01-21T23:23:37.868Z,49.40
2019-01-21T23:27:41.381Z,52.97
2019-01-21T23:31:44.849Z,50.87
2019-01-21T23:35:48.364Z,54.10
2019-01-21T23:39:51.881Z,52.57
2019-01-21T23:43:55.323Z,52.37
2019-01-21T23:47:58.751Z,49.97
2019-01-21T23:52:02.192Z,51.60
2019-01-21T23:56:05.636Z,54.23
